createdAt,value
2022-08-01T00:01:00.077Z,3.15
2022-08-01T00:03:28.236Z,2.95
2022-08-01T00:05:56.014Z,3.30
2022-08-01T00:08:23.975Z,3.35
2022-08-01T00:10:52.084Z,3.08
2022-08-01T00:13:19.833Z,3.12
2022-08-01T00:15:53.840Z,3.22
2022-08-01T00:18:23.064Z,3.08
2022-08-01T00:20:51.013Z,3.37
2022-08-01T00:23:18.886Z,3.20
2022-08-01T00:25:47.014Z,3.00
2022-08-01T00:28:14.906Z,3.10
2022-08-01T00:30:42.751Z,3.25
2022-08-01T00:33:10.805Z,3.30
2022-08-01T00:35:38.837Z,3.22
2022-08-01T00:38:06.657Z,3.53
2022-08-01T00:40:34.903Z,3.40
2022-08-01T00:43:02.744Z,3.42
2022-08-01T00:45:30.510Z,3.35
2022-08-01T00:47:58.794Z,3.62
2022-08-01T00:50:26.746Z,3.22
2022-08-01T00:52:55.163Z,3.55
2022-08-01T00:55:23.636Z,3.33
2022-08-01T00:58:03.655Z,3.30
2022-08-01T01:00:52.489Z,3.08
2022-08-01T01:03:26.380Z,3.30
2022-08-01T01:06:13.422Z,3.70
2022-08-01T01:08:48.913Z,3.12
2022-08-01T01:11:27.543Z,3.33
2022-08-01T01:13:59.633Z,3.40
2022-08-01T01:16:28.474Z,3.35
2022-08-01T01:18:58.985Z,3.35
2022-08-01T01:21:36.957Z,3.33
2022-08-01T01:24:32.773Z,3.10
2022-08-01T01:27:11.403Z,3.58
2022-08-01T01:30:00.437Z,3.17
2022-08-01T01:32:40.682Z,2.75
2022-08-01T01:35:28.543Z,3.12
2022-08-01T01:38:03.324Z,2.85
2022-08-01T01:40:31.744Z,3.47
2022-08-01T01:43:00.125Z,3.35
2022-08-01T01:45:28.607Z,3.15
2022-08-01T01:47:57.604Z,2.80
2022-08-01T01:50:26.386Z,3.22
2022-08-01T01:52:55.904Z,3.35
2022-08-01T01:55:25.134Z,3.40
2022-08-01T01:57:53.885Z,3.25
2022-08-01T02:00:22.525Z,2.70
2022-08-01T02:02:51.483Z,2.75
2022-08-01T02:05:19.933Z,3.15
2022-08-01T02:07:48.678Z,3.12
2022-08-01T02:10:17.244Z,3.00
2022-08-01T02:12:46.734Z,3.50
2022-08-01T02:15:15.446Z,2.90
2022-08-01T02:17:46.284Z,3.15
2022-08-01T02:20:14.976Z,3.05
2022-08-01T02:22:53.286Z,3.20
2022-08-01T02:25:36.375Z,3.05
2022-08-01T02:28:29.276Z,4.15
2022-08-01T02:31:03.096Z,3.58
2022-08-01T02:34:06.808Z,3.60
2022-08-01T02:36:36.565Z,3.25
2022-08-01T02:39:14.304Z,3.17
2022-08-01T02:41:44.814Z,3.37
2022-08-01T02:44:18.146Z,3.00
2022-08-01T02:46:59.194Z,3.05
2022-08-01T02:49:27.624Z,3.40
2022-08-01T02:51:57.104Z,2.60
2022-08-01T02:54:25.904Z,3.17
2022-08-01T02:56:54.414Z,3.55
2022-08-01T02:59:26.723Z,3.20
2022-08-01T03:01:58.276Z,3.03
2022-08-01T03:04:29.367Z,3.33
2022-08-01T03:06:59.724Z,3.17
2022-08-01T03:09:28.835Z,3.10
2022-08-01T03:12:00.436Z,3.15
2022-08-01T03:14:29.083Z,3.10
2022-08-01T03:16:58.005Z,2.92
2022-08-01T03:19:27.644Z,3.50
2022-08-01T03:21:56.234Z,3.75
2022-08-01T03:24:24.955Z,3.50
2022-08-01T03:26:53.856Z,3.33
2022-08-01T03:29:24.374Z,3.70
2022-08-01T03:31:52.925Z,3.60
2022-08-01T03:34:22.945Z,3.50
2022-08-01T03:37:05.796Z,3.70
2022-08-01T03:39:37.167Z,3.47
2022-08-01T03:42:13.295Z,3.37
2022-08-01T03:47:10.799Z,3.42
2022-08-01T03:49:44.394Z,3.37
2022-08-01T03:52:12.755Z,3.58
2022-08-01T03:54:45.277Z,2.92
2022-08-01T03:57:34.966Z,3.45
2022-08-01T04:00:02.362Z,3.40
2022-08-01T04:02:40.167Z,3.47
2022-08-01T04:05:08.790Z,3.40
2022-08-01T04:07:44.306Z,2.90
2022-08-01T04:10:12.524Z,3.35
2022-08-01T04:12:40.356Z,3.10
2022-08-01T04:15:08.527Z,2.95
2022-08-01T04:17:36.674Z,3.10
2022-08-01T04:20:04.886Z,3.12
2022-08-01T04:22:32.806Z,3.35
2022-08-01T04:25:10.375Z,2.90
2022-08-01T04:27:49.176Z,2.90
2022-08-01T04:30:24.420Z,2.87
2022-08-01T04:32:54.175Z,2.78
2022-08-01T04:36:03.792Z,3.08
2022-08-01T04:38:14.266Z,3.05
2022-08-01T04:40:42.746Z,2.80
2022-08-01T04:43:10.566Z,2.80
2022-08-01T04:45:38.744Z,2.83
2022-08-01T04:48:07.805Z,2.17
2022-08-01T04:50:37.370Z,2.67
2022-08-01T04:53:05.185Z,2.92
2022-08-01T04:55:33.434Z,2.45
2022-08-01T04:58:01.246Z,2.83
2022-08-01T05:00:29.645Z,2.90
2022-08-01T05:02:59.177Z,2.53
2022-08-01T05:05:27.455Z,2.80
2022-08-01T05:07:55.294Z,2.42
2022-08-01T05:10:23.395Z,2.55
2022-08-01T05:12:51.796Z,3.28
2022-08-01T05:15:19.755Z,3.15
2022-08-01T05:17:48.377Z,2.78
2022-08-01T05:20:17.737Z,2.85
2022-08-01T05:22:45.600Z,2.87
2022-08-01T05:25:14.618Z,2.70
2022-08-01T05:27:51.056Z,2.65
2022-08-01T05:30:19.746Z,2.83
2022-08-01T05:32:47.703Z,2.62
2022-08-01T05:35:15.968Z,2.45
2022-08-01T05:37:44.136Z,2.65
2022-08-01T05:40:12.604Z,2.50
2022-08-01T05:42:41.673Z,2.80
2022-08-01T05:45:10.458Z,2.62
2022-08-01T05:47:38.395Z,2.70
2022-08-01T05:50:11.426Z,2.60
2022-08-01T05:52:39.505Z,3.45
2022-08-01T05:55:07.937Z,2.70
2022-08-01T05:57:36.425Z,2.60
2022-08-01T06:00:07.890Z,2.80
2022-08-01T06:02:44.017Z,2.47
2022-08-01T06:05:13.653Z,3.05
2022-08-01T06:07:42.449Z,2.22
2022-08-01T06:10:10.788Z,2.37
2022-08-01T06:12:39.139Z,2.65
2022-08-01T06:15:08.253Z,2.53
2022-08-01T06:17:36.173Z,2.50
2022-08-01T06:20:05.947Z,2.60
2022-08-01T06:22:33.738Z,2.58
2022-08-01T06:25:01.738Z,3.20
2022-08-01T06:27:30.268Z,2.60
2022-08-01T06:29:58.326Z,2.50
2022-08-01T06:32:27.958Z,2.58
2022-08-01T06:34:58.483Z,2.50
2022-08-01T06:37:32.243Z,2.70
2022-08-01T06:40:13.367Z,2.75
2022-08-01T06:42:44.435Z,3.25
2022-08-01T06:45:14.126Z,2.65
2022-08-01T06:47:43.339Z,2.60
2022-08-01T06:50:12.211Z,2.40
2022-08-01T06:52:40.887Z,2.70
2022-08-01T06:55:09.327Z,2.33
2022-08-01T06:57:37.472Z,2.55
2022-08-01T07:00:12.230Z,2.65
2022-08-01T07:02:40.255Z,2.87
2022-08-01T07:05:08.820Z,2.47
2022-08-01T07:07:37.644Z,2.40
2022-08-01T07:10:06.345Z,1.98
2022-08-01T07:12:34.997Z,2.33
2022-08-01T07:15:02.969Z,2.67
2022-08-01T07:17:30.828Z,2.33
2022-08-01T07:19:59.146Z,2.40
2022-08-01T07:22:27.017Z,2.42
2022-08-01T07:24:54.884Z,2.30
2022-08-01T07:27:25.721Z,2.35
2022-08-01T07:29:54.055Z,2.47
2022-08-01T07:32:22.071Z,2.47
2022-08-01T07:34:50.358Z,2.60
2022-08-01T07:37:18.182Z,2.40
2022-08-01T07:40:06.919Z,1.98
2022-08-01T07:42:35.643Z,2.42
2022-08-01T07:45:04.967Z,2.75
2022-08-01T07:47:33.135Z,2.42
2022-08-01T07:50:01.838Z,2.40
2022-08-01T07:52:29.813Z,3.10
2022-08-01T07:55:00.264Z,2.47
2022-08-01T07:57:28.201Z,3.12
2022-08-01T07:59:56.154Z,2.30
2022-08-01T08:02:24.686Z,2.72
2022-08-01T08:04:52.835Z,2.53
2022-08-01T08:07:20.758Z,2.78
2022-08-01T08:09:51.289Z,2.78
2022-08-01T08:12:28.811Z,2.55
2022-08-01T08:14:59.569Z,2.58
2022-08-01T08:17:28.635Z,2.60
2022-08-01T08:19:56.566Z,3.97
2022-08-01T08:22:24.986Z,2.95
2022-08-01T08:24:53.455Z,2.97
2022-08-01T08:27:21.360Z,3.12
2022-08-01T08:29:49.368Z,3.17
2022-08-01T08:32:17.660Z,2.50
2022-08-01T08:34:45.766Z,2.67
2022-08-01T08:37:14.090Z,2.97
2022-08-01T08:39:42.847Z,2.70
2022-08-01T08:42:12.578Z,2.83
2022-08-01T08:44:44.416Z,3.17
2022-08-01T08:47:19.392Z,2.65
2022-08-01T08:49:51.419Z,2.90
2022-08-01T08:52:23.816Z,2.37
2022-08-01T08:54:52.938Z,2.87
2022-08-01T08:57:22.219Z,3.22
2022-08-01T08:59:53.316Z,2.95
2022-08-01T09:02:22.449Z,3.65
2022-08-01T09:04:51.548Z,2.75
2022-08-01T09:07:19.490Z,3.28
2022-08-01T09:09:51.461Z,2.65
2022-08-01T09:12:21.615Z,3.20
2022-08-01T09:14:51.467Z,2.92
2022-08-01T09:17:19.761Z,3.30
2022-08-01T09:19:57.822Z,3.25
2022-08-01T09:22:28.089Z,3.00
2022-08-01T09:25:08.112Z,2.83
2022-08-01T09:27:44.371Z,3.42
2022-08-01T09:30:23.709Z,3.30
2022-08-01T09:33:01.702Z,2.95
2022-08-01T09:35:43.478Z,3.80
2022-08-01T09:38:14.935Z,3.08
2022-08-01T09:41:01.454Z,3.12
2022-08-01T09:43:32.238Z,3.20
2022-08-01T09:46:01.576Z,3.22
2022-08-01T09:48:30.182Z,3.58
2022-08-01T09:51:04.662Z,3.33
2022-08-01T09:53:51.039Z,3.37
2022-08-01T09:56:20.136Z,3.72
2022-08-01T09:58:59.874Z,3.55
2022-08-01T10:01:36.781Z,3.37
2022-08-01T10:04:11.505Z,3.50
2022-08-01T10:06:45.492Z,3.47
2022-08-01T10:09:15.014Z,3.17
2022-08-01T10:11:45.055Z,3.12
2022-08-01T10:14:18.192Z,3.55
2022-08-01T10:16:52.974Z,3.40
2022-08-01T10:19:25.267Z,3.40
2022-08-01T10:21:59.395Z,3.92
2022-08-01T10:24:30.367Z,3.25
2022-08-01T10:27:08.055Z,3.03
2022-08-01T10:29:45.886Z,3.60
2022-08-01T10:32:16.238Z,3.55
2022-08-01T10:34:44.918Z,3.08
2022-08-01T10:37:18.475Z,3.17
2022-08-01T10:39:47.088Z,3.20
2022-08-01T10:42:15.566Z,3.20
2022-08-01T10:44:47.258Z,3.20
2022-08-01T10:47:24.129Z,4.18
2022-08-01T10:50:08.740Z,3.35
2022-08-01T10:52:39.674Z,3.20
2022-08-01T10:55:10.677Z,2.92
2022-08-01T10:57:48.838Z,3.00
2022-08-01T11:00:25.655Z,3.45
2022-08-01T11:03:05.475Z,3.60
2022-08-01T11:05:37.988Z,3.40
2022-08-01T11:08:24.028Z,3.30
2022-08-01T11:11:01.855Z,3.40
2022-08-01T11:13:59.036Z,2.90
2022-08-01T11:16:32.620Z,3.22
2022-08-01T11:19:00.995Z,2.20
2022-08-01T11:21:59.044Z,3.00
2022-08-01T11:24:51.088Z,2.70
2022-08-01T11:27:33.648Z,2.75
2022-08-01T11:30:13.270Z,2.47
2022-08-01T11:33:10.758Z,2.70
2022-08-01T11:36:11.776Z,2.67
2022-08-01T11:38:46.626Z,3.12
2022-08-01T11:41:37.331Z,2.53
2022-08-01T11:44:12.058Z,2.65
2022-08-01T11:46:57.036Z,2.45
2022-08-01T11:49:48.969Z,2.67
2022-08-01T11:52:37.404Z,2.65
2022-08-01T11:55:05.276Z,2.67
2022-08-01T11:57:39.184Z,2.33
2022-08-01T12:00:17.367Z,2.53
2022-08-01T12:02:47.914Z,2.60
2022-08-01T12:05:19.349Z,2.80
2022-08-01T12:07:50.898Z,2.17
2022-08-01T12:10:23.240Z,2.20
2022-08-01T12:12:58.662Z,2.40
2022-08-01T12:15:33.912Z,2.08
2022-08-01T12:20:34.178Z,2.35
2022-08-01T12:23:06.927Z,2.40
2022-08-01T12:25:38.175Z,2.92
2022-08-01T12:28:09.628Z,2.45
2022-08-01T12:30:38.977Z,2.83
2022-08-01T12:33:11.664Z,2.67
2022-08-01T12:35:40.024Z,3.03
2022-08-01T12:38:16.356Z,3.17
2022-08-01T12:40:46.347Z,3.20
2022-08-01T12:43:28.037Z,4.35
2022-08-01T12:45:59.898Z,2.95
2022-08-01T12:48:29.114Z,2.55
2022-08-01T12:51:01.620Z,2.90
2022-08-01T12:53:40.273Z,3.12
2022-08-01T12:56:11.667Z,2.87
2022-08-01T12:58:40.332Z,2.95
2022-08-01T13:01:11.250Z,3.28
2022-08-01T13:03:39.784Z,3.08
2022-08-01T13:06:16.917Z,2.87
2022-08-01T13:08:47.196Z,2.90
2022-08-01T13:11:17.788Z,2.95
2022-08-01T13:13:51.379Z,2.37
2022-08-01T13:39:36.800Z,2.67
2022-08-01T13:42:04.967Z,2.80
2022-08-01T13:44:34.450Z,2.80
2022-08-01T13:47:14.961Z,2.45
2022-08-01T13:49:45.071Z,2.50
2022-08-01T13:52:12.989Z,2.65
2022-08-01T13:54:40.799Z,2.58
2022-08-01T13:57:09.424Z,2.65
2022-08-01T13:59:37.354Z,2.55
2022-08-01T14:02:05.446Z,2.30
2022-08-01T14:04:34.227Z,3.62
2022-08-01T14:07:09.623Z,2.65
2022-08-01T14:09:45.082Z,2.70
2022-08-01T14:12:27.499Z,2.60
2022-08-01T14:14:55.627Z,2.47
2022-08-01T14:17:23.449Z,2.50
2022-08-01T14:19:51.248Z,3.05
2022-08-01T14:22:19.449Z,3.58
2022-08-01T14:24:47.368Z,2.80
2022-08-01T14:27:15.339Z,2.62
2022-08-01T14:30:02.654Z,2.40
2022-08-01T14:32:31.337Z,2.70
2022-08-01T14:34:59.524Z,2.70
2022-08-01T14:37:29.195Z,2.92
2022-08-01T14:39:59.940Z,2.80
2022-08-01T14:42:28.172Z,3.00
2022-08-01T14:44:56.132Z,3.10
2022-08-01T14:47:24.409Z,2.62
2022-08-01T14:49:52.412Z,2.90
2022-08-01T14:52:20.801Z,2.80
2022-08-01T14:54:48.915Z,2.70
2022-08-01T14:57:19.302Z,2.72
2022-08-01T14:59:47.967Z,2.78
2022-08-01T15:02:18.394Z,2.90
2022-08-01T15:04:47.691Z,2.67
2022-08-01T15:07:16.918Z,2.50
2022-08-01T15:09:46.939Z,2.50
2022-08-01T15:12:15.020Z,2.60
2022-08-01T15:14:49.051Z,2.20
2022-08-01T15:17:32.033Z,2.15
2022-08-01T15:20:09.299Z,2.20
2022-08-01T15:22:37.562Z,2.25
2022-08-01T15:25:05.713Z,2.12
2022-08-01T15:27:33.510Z,2.20
2022-08-01T15:30:01.779Z,2.30
2022-08-01T15:32:30.341Z,2.20
2022-08-01T15:34:58.068Z,2.37
2022-08-01T15:37:26.109Z,2.12
2022-08-01T15:39:56.434Z,2.33
2022-08-01T15:42:27.147Z,2.35
2022-08-01T15:44:55.518Z,2.50
2022-08-01T15:47:24.859Z,2.33
2022-08-01T15:49:53.467Z,2.50
2022-08-01T15:52:23.158Z,2.12
2022-08-01T15:54:58.510Z,2.72
2022-08-01T15:57:26.838Z,2.30
2022-08-01T15:59:54.660Z,2.50
2022-08-01T16:02:22.543Z,2.80
2022-08-01T16:04:51.100Z,2.83
2022-08-01T16:07:18.870Z,2.40
2022-08-01T16:09:46.619Z,2.67
2022-08-01T16:12:14.760Z,2.53
2022-08-01T16:14:42.601Z,2.30
2022-08-01T16:17:10.440Z,2.30
2022-08-01T16:19:38.589Z,2.75
2022-08-01T16:22:06.734Z,2.60
2022-08-01T16:24:36.474Z,2.42
2022-08-01T16:27:05.078Z,2.03
2022-08-01T16:29:32.931Z,2.33
2022-08-01T16:32:00.921Z,2.25
2022-08-01T16:34:48.871Z,2.03
2022-08-01T16:37:16.706Z,3.35
2022-08-01T16:39:45.700Z,2.37
2022-08-01T16:42:15.607Z,2.33
2022-08-01T16:44:45.209Z,2.30
2022-08-01T16:47:13.449Z,2.50
2022-08-01T16:49:41.659Z,2.37
2022-08-01T16:52:09.754Z,2.25
2022-08-01T16:54:37.776Z,2.35
2022-08-01T16:57:07.988Z,2.47
2022-08-01T16:59:40.877Z,2.10
2022-08-01T17:02:11.053Z,1.95
2022-08-01T17:04:38.983Z,2.30
2022-08-01T17:07:07.074Z,2.30
2022-08-01T17:09:37.538Z,2.08
2022-08-01T17:12:09.089Z,2.35
2022-08-01T17:14:40.131Z,2.40
2022-08-01T17:17:08.730Z,2.50
2022-08-01T17:19:37.048Z,2.30
2022-08-01T17:22:04.970Z,2.45
2022-08-01T17:24:32.837Z,2.78
2022-08-01T17:27:01.498Z,2.50
2022-08-01T17:29:29.549Z,2.70
2022-08-01T17:32:12.451Z,2.70
2022-08-01T17:34:41.742Z,2.50
2022-08-01T17:37:10.527Z,3.25
2022-08-01T17:39:40.104Z,2.60
2022-08-01T17:42:09.018Z,2.80
2022-08-01T17:44:37.019Z,2.65
2022-08-01T17:47:06.843Z,2.80
2022-08-01T17:49:53.700Z,2.87
2022-08-01T17:52:22.859Z,2.60
2022-08-01T17:54:53.771Z,3.20
2022-08-01T17:57:21.588Z,2.72
2022-08-01T17:59:50.758Z,2.97
2022-08-01T18:02:18.845Z,2.75
2022-08-01T18:04:47.469Z,3.78
2022-08-01T18:07:16.229Z,2.65
2022-08-01T18:09:46.189Z,3.30
2022-08-01T18:12:14.869Z,2.80
2022-08-01T18:14:44.121Z,3.05
2022-08-01T18:17:11.959Z,3.28
2022-08-01T18:19:40.649Z,2.85
2022-08-01T18:22:28.884Z,3.65
2022-08-01T18:24:56.441Z,3.20
2022-08-01T18:27:24.207Z,3.05
2022-08-01T18:30:12.537Z,2.87
2022-08-01T18:32:41.259Z,3.10
2022-08-01T18:35:14.184Z,3.37
2022-08-01T18:37:47.086Z,3.17
2022-08-01T18:40:23.116Z,2.95
2022-08-01T18:42:51.519Z,3.78
2022-08-01T18:45:19.559Z,3.60
2022-08-01T18:47:48.518Z,3.60
2022-08-01T18:50:17.330Z,3.58
2022-08-01T18:52:45.187Z,3.62
2022-08-01T18:55:13.248Z,3.35
2022-08-01T18:57:42.773Z,3.47
2022-08-01T19:00:11.648Z,3.45
2022-08-01T19:02:39.787Z,3.60
2022-08-01T19:05:09.228Z,3.95
2022-08-01T19:08:05.151Z,4.12
2022-08-01T19:10:25.717Z,4.20
2022-08-01T19:12:53.498Z,4.50
2022-08-01T19:15:21.295Z,4.07
2022-08-01T19:17:49.399Z,4.07
2022-08-01T19:20:17.195Z,4.22
2022-08-01T19:22:45.175Z,4.57
2022-08-01T19:25:15.254Z,4.12
2022-08-01T19:27:48.298Z,4.18
2022-08-01T19:30:17.709Z,4.65
2022-08-01T19:32:46.879Z,3.90
2022-08-01T19:35:17.159Z,3.87
2022-08-01T19:37:54.076Z,4.50
2022-08-01T19:40:26.637Z,3.58
2022-08-01T19:42:57.358Z,4.70
2022-08-01T19:45:29.428Z,4.70
2022-08-01T19:47:58.197Z,4.80
2022-08-01T19:50:26.968Z,4.72
2022-08-01T19:53:02.552Z,4.10
2022-08-01T19:55:34.187Z,4.12
2022-08-01T19:58:25.974Z,4.10
2022-08-01T20:00:53.002Z,3.72
2022-08-01T20:03:22.724Z,3.83
2022-08-01T20:05:51.686Z,3.87
2022-08-01T20:08:21.027Z,4.95
2022-08-01T20:10:49.068Z,4.47
2022-08-01T20:13:17.481Z,4.35
2022-08-01T20:15:45.480Z,4.95
2022-08-01T20:18:13.649Z,3.62
2022-08-01T20:20:42.169Z,3.53
2022-08-01T20:23:18.067Z,4.28
2022-08-01T20:25:49.977Z,4.60
2022-08-01T20:28:23.018Z,3.42
2022-08-01T20:30:54.941Z,3.80
2022-08-01T20:33:22.778Z,3.53
2022-08-01T20:35:53.725Z,3.28
2022-08-01T20:38:27.547Z,3.35
2022-08-01T20:41:00.140Z,3.42
2022-08-01T20:43:28.211Z,2.87
2022-08-01T20:45:56.820Z,3.10
2022-08-01T20:48:26.748Z,3.05
2022-08-01T20:51:13.327Z,2.75
2022-08-01T20:53:49.318Z,3.10
2022-08-01T20:56:22.951Z,3.22
2022-08-01T20:59:09.858Z,3.60
2022-08-01T21:01:49.644Z,2.70
2022-08-01T21:04:20.419Z,2.92
2022-08-01T21:07:27.790Z,2.90
2022-08-01T21:10:01.599Z,2.75
2022-08-01T21:13:03.469Z,3.25
2022-08-01T21:15:32.678Z,3.37
2022-08-01T21:18:19.892Z,3.10
2022-08-01T21:21:02.293Z,3.45
2022-08-01T21:23:58.538Z,2.72
2022-08-01T21:26:27.220Z,3.00
2022-08-01T21:28:59.336Z,2.72
2022-08-01T21:31:41.056Z,3.17
2022-08-01T21:34:09.964Z,3.33
2022-08-01T21:36:38.002Z,3.12
2022-08-01T21:39:07.587Z,2.90
2022-08-01T21:42:03.430Z,2.80
2022-08-01T21:44:28.657Z,3.15
2022-08-01T21:47:00.107Z,2.70
2022-08-01T21:49:28.086Z,3.25
2022-08-01T21:52:18.409Z,2.87
2022-08-01T21:55:22.896Z,2.97
2022-08-01T21:58:32.489Z,2.80
2022-08-01T22:01:14.819Z,2.95
2022-08-01T22:03:46.589Z,2.85
2022-08-01T22:06:16.112Z,2.85
2022-08-01T22:08:52.287Z,2.75
2022-08-01T22:11:31.270Z,2.95
2022-08-01T22:14:05.051Z,2.80
2022-08-01T22:16:33.559Z,2.92
2022-08-01T22:19:02.564Z,2.80
2022-08-01T22:21:31.368Z,3.17
2022-08-01T22:23:59.428Z,2.72
2022-08-01T22:26:29.409Z,2.95
2022-08-01T22:28:57.629Z,2.90
2022-08-01T22:31:25.839Z,2.62
2022-08-01T22:33:54.440Z,2.92
2022-08-01T22:36:22.291Z,2.87
2022-08-01T22:38:50.163Z,2.90
2022-08-01T22:41:22.173Z,3.00
2022-08-01T22:44:03.638Z,3.15
2022-08-01T22:46:46.719Z,2.83
2022-08-01T22:49:23.714Z,3.28
2022-08-01T22:51:58.209Z,3.12
2022-08-01T22:54:35.801Z,3.25
2022-08-01T22:57:07.498Z,3.17
2022-08-01T22:59:47.499Z,2.78
2022-08-01T23:02:17.350Z,3.40
2022-08-01T23:04:50.094Z,4.10
2022-08-01T23:07:24.619Z,3.40
2022-08-01T23:09:55.241Z,3.30
2022-08-01T23:12:25.548Z,3.62
2022-08-01T23:14:55.798Z,3.20
2022-08-01T23:17:27.219Z,3.90
2022-08-01T23:20:01.383Z,3.20
2022-08-01T23:22:32.722Z,3.37
2022-08-01T23:25:05.067Z,3.22
2022-08-01T23:27:56.006Z,2.90
2022-08-01T23:30:30.670Z,3.62
2022-08-01T23:32:59.029Z,3.75
2022-08-01T23:35:27.740Z,3.42
2022-08-01T23:38:01.950Z,3.25
2022-08-01T23:40:34.931Z,3.15
2022-08-01T23:43:03.913Z,3.17
2022-08-01T23:45:58.455Z,3.58
2022-08-01T23:48:21.010Z,3.40
2022-08-01T23:50:48.999Z,3.85
2022-08-01T23:53:16.840Z,3.53
2022-08-01T23:55:44.625Z,3.58
2022-08-01T23:58:12.808Z,2.95
